Time,TemperatureF,DewpointF,PressureIn,WindDirection,WindDirectionDegrees,WindSpeedMPH,WindSpeedGustMPH,Humidity,HourlyPrecipIn,Conditions,Clouds,dailyrainin,SoftwareType,DateUTC
2013-08-21 00:02:00,76.0,71.0,-100.00,South,180,5.0,11.0,84,-99.99,,,-99.99,,2013-08-21 05:02:00,
2013-08-21 00:10:00,75.0,71.0,-100.00,South,170,8.0,13.0,85,-99.99,,,-99.99,,2013-08-21 05:10:00,
2013-08-21 00:43:00,75.0,71.0,-100.00,South,170,8.0,13.0,85,-99.99,,,-99.99,,2013-08-21 05:43:00,
2013-08-21 00:52:00,75.0,71.0,-100.00,South,170,8.0,13.0,85,-99.99,,,-99.99,,2013-08-21 05:52:00,
2013-08-21 01:02:00,75.0,71.0,-100.00,South,170,8.0,13.0,85,-99.99,,,-99.99,,2013-08-21 06:02:00,
2013-08-21 01:10:00,75.0,70.0,-100.00,South,180,6.0,12.0,86,-99.99,,,-99.99,,2013-08-21 06:10:00,
2013-08-21 01:42:00,75.0,70.0,-100.00,South,180,6.0,12.0,86,-99.99,,,-99.99,,2013-08-21 06:42:00,
2013-08-21 01:52:00,75.0,70.0,-100.00,South,180,6.0,12.0,86,-99.99,,,-99.99,,2013-08-21 06:52:00,
2013-08-21 02:02:00,75.0,70.0,-100.00,South,180,6.0,12.0,86,-99.99,,,-99.99,,2013-08-21 07:02:00,
2013-08-21 02:10:00,74.0,70.0,-100.00,South,180,7.0,10.0,88,-99.99,,,-99.99,,2013-08-21 07:10:00,
2013-08-21 02:42:00,74.0,70.0,-100.00,South,180,7.0,10.0,88,-99.99,,,-99.99,,2013-08-21 07:42:00,
2013-08-21 02:53:00,74.0,70.0,-100.00,South,180,7.0,10.0,88,-99.99,,,-99.99,,2013-08-21 07:53:00,
2013-08-21 03:03:00,74.0,70.0,-100.00,South,180,7.0,10.0,88,-99.99,,,-99.99,,2013-08-21 08:03:00,
2013-08-21 03:10:00,73.0,70.0,-100.00,South,180,6.0,12.0,90,-99.99,,,-99.99,,2013-08-21 08:10:00,
2013-08-21 03:43:00,73.0,70.0,-100.00,South,180,6.0,12.0,90,-99.99,,,-99.99,,2013-08-21 08:43:00,
2013-08-21 03:53:00,73.0,70.0,-100.00,South,180,6.0,12.0,90,-99.99,,,-99.99,,2013-08-21 08:53:00,
2013-08-21 04:01:00,73.0,70.0,-100.00,South,180,6.0,12.0,90,-99.99,,,-99.99,,2013-08-21 09:01:00,
2013-08-21 04:43:00,72.0,69.0,-100.00,SSE,165,2.0,9.0,91,-99.99,,,-99.99,,2013-08-21 09:43:00,
2013-08-21 04:54:00,72.0,69.0,-100.00,SSE,165,2.0,9.0,91,-99.99,,,-99.99,,2013-08-21 09:54:00,
2013-08-21 05:03:00,72.0,69.0,-100.00,SSE,165,2.0,9.0,91,-99.99,,,-99.99,,2013-08-21 10:03:00,
2013-08-21 05:43:00,72.0,70.0,-100.00,South,180,2.0,6.0,94,-99.99,,,-99.99,,2013-08-21 10:43:00,
2013-08-21 05:52:00,72.0,70.0,-100.00,South,180,2.0,6.0,94,-99.99,,,-99.99,,2013-08-21 10:52:00,
2013-08-21 06:03:00,72.0,70.0,-100.00,South,180,2.0,6.0,94,-99.99,,,-99.99,,2013-08-21 11:03:00,
2013-08-21 06:11:00,71.0,69.0,-100.00,South,180,4.0,5.0,96,-99.99,,,-99.99,,2013-08-21 11:11:00,
2013-08-21 06:42:00,71.0,69.0,-100.00,South,180,4.0,5.0,96,-99.99,,,-99.99,,2013-08-21 11:42:00,
2013-08-21 06:53:00,71.0,69.0,-100.00,South,180,4.0,5.0,96,-99.99,,,-99.99,,2013-08-21 11:53:00,
2013-08-21 07:01:00,71.0,69.0,-100.00,South,180,4.0,5.0,96,-99.99,,,-99.99,,2013-08-21 12:01:00,
2013-08-21 07:11:00,71.0,70.0,-100.00,South,185,2.0,4.0,97,-99.99,,,-99.99,,2013-08-21 12:11:00,
2013-08-21 07:42:00,71.0,70.0,-100.00,South,185,2.0,4.0,97,-99.99,,,-99.99,,2013-08-21 12:42:00,
2013-08-21 07:52:00,71.0,70.0,-100.00,South,185,2.0,4.0,97,-99.99,,,-99.99,,2013-08-21 12:52:00,
2013-08-21 08:02:00,71.0,70.0,-100.00,South,185,2.0,4.0,97,-99.99,,,-99.99,,2013-08-21 13:02:00,
2013-08-21 08:42:00,72.0,71.0,-100.00,SSE,160,3.0,11.0,95,-99.99,,,-99.99,,2013-08-21 13:42:00,
2013-08-21 08:52:00,72.0,71.0,-100.00,SSE,160,3.0,11.0,95,-99.99,,,-99.99,,2013-08-21 13:52:00,
2013-08-21 09:02:00,72.0,71.0,-100.00,SSE,160,3.0,11.0,95,-99.99,,,-99.99,,2013-08-21 14:02:00,
2013-08-21 09:42:00,74.0,70.0,-100.00,South,175,9.0,15.0,86,-99.99,,,-99.99,,2013-08-21 14:42:00,
2013-08-21 09:52:00,74.0,70.0,-100.00,South,175,9.0,15.0,86,-99.99,,,-99.99,,2013-08-21 14:52:00,
2013-08-21 10:01:00,74.0,70.0,-100.00,South,175,9.0,15.0,86,-99.99,,,-99.99,,2013-08-21 15:01:00,
2013-08-21 10:43:00,79.0,71.0,-100.00,SSE,165,4.0,14.0,77,-99.99,,,-99.99,,2013-08-21 15:43:00,
2013-08-21 10:55:00,79.0,71.0,-100.00,SSE,165,4.0,14.0,77,-99.99,,,-99.99,,2013-08-21 15:55:00,
2013-08-21 11:04:00,79.0,71.0,-100.00,SSE,165,4.0,14.0,77,-99.99,,,-99.99,,2013-08-21 16:04:00,
2013-08-21 11:10:00,80.0,71.0,-100.00,WSW,240,2.0,7.0,73,-99.99,,,-99.99,,2013-08-21 16:10:00,
2013-08-21 11:43:00,80.0,71.0,-100.00,WSW,240,2.0,7.0,73,-99.99,,,-99.99,,2013-08-21 16:43:00,
2013-08-21 11:53:00,80.0,71.0,-100.00,WSW,240,2.0,7.0,73,-99.99,,,-99.99,,2013-08-21 16:53:00,
2013-08-21 12:04:00,80.0,71.0,-100.00,WSW,240,2.0,7.0,73,-99.99,,,-99.99,,2013-08-21 17:04:00,
2013-08-21 12:43:00,78.0,71.0,-100.00,West,280,4.0,8.0,81,-99.99,,,-99.99,,2013-08-21 17:43:00,
2013-08-21 12:53:00,78.0,71.0,-100.00,West,280,4.0,8.0,81,-99.99,,,-99.99,,2013-08-21 17:53:00,
2013-08-21 13:02:00,78.0,71.0,-100.00,West,280,4.0,8.0,81,-99.99,,,-99.99,,2013-08-21 18:02:00,
2013-08-21 13:10:00,82.0,72.0,-100.00,South,180,2.0,8.0,71,-99.99,,,-99.99,,2013-08-21 18:10:00,
2013-08-21 13:42:00,82.0,72.0,-100.00,South,180,2.0,8.0,71,-99.99,,,-99.99,,2013-08-21 18:42:00,
2013-08-21 13:52:00,82.0,72.0,-100.00,South,180,2.0,8.0,71,-99.99,,,-99.99,,2013-08-21 18:52:00,
2013-08-21 14:01:00,82.0,72.0,-100.00,South,180,2.0,8.0,71,-99.99,,,-99.99,,2013-08-21 19:01:00,
2013-08-21 14:42:00,82.0,72.0,-100.00,WNW,295,3.0,6.0,72,-99.99,,,-99.99,,2013-08-21 19:42:00,
2013-08-21 14:52:00,82.0,72.0,-100.00,WNW,295,3.0,6.0,72,-99.99,,,-99.99,,2013-08-21 19:52:00,
2013-08-21 15:03:00,82.0,72.0,-100.00,WNW,295,3.0,6.0,72,-99.99,,,-99.99,,2013-08-21 20:03:00,
2013-08-21 15:42:00,81.0,74.0,-100.00,NW,305,6.0,10.0,79,-99.99,,,-99.99,,2013-08-21 20:42:00,
2013-08-21 15:52:00,81.0,74.0,-100.00,NW,305,6.0,10.0,79,-99.99,,,-99.99,,2013-08-21 20:52:00,
2013-08-21 16:02:00,81.0,74.0,-100.00,NW,305,6.0,10.0,79,-99.99,,,-99.99,,2013-08-21 21:02:00,
2013-08-21 16:45:00,84.0,65.0,-100.00,North,10,7.0,17.0,53,-99.99,,,-99.99,,2013-08-21 21:45:00,
2013-08-21 16:55:00,84.0,65.0,-100.00,North,10,7.0,17.0,53,-99.99,,,-99.99,,2013-08-21 21:55:00,
2013-08-21 17:04:00,84.0,65.0,-100.00,North,10,7.0,17.0,53,-99.99,,,-99.99,,2013-08-21 22:04:00,
2013-08-21 17:44:00,85.0,60.0,-100.00,North,0,9.0,18.0,43,-99.99,,,-99.99,,2013-08-21 22:44:00,
2013-08-21 17:53:00,85.0,60.0,-100.00,North,0,9.0,18.0,43,-99.99,,,-99.99,,2013-08-21 22:53:00,
2013-08-21 18:04:00,85.0,60.0,-100.00,North,0,9.0,18.0,43,-99.99,,,-99.99,,2013-08-21 23:04:00,
2013-08-21 18:43:00,83.0,56.0,-100.00,NNW,335,4.0,11.0,41,-99.99,,,-99.99,,2013-08-21 23:43:00,
2013-08-21 18:53:00,83.0,56.0,-100.00,NNW,335,4.0,11.0,41,-99.99,,,-99.99,,2013-08-21 23:53:00,
2013-08-21 19:02:00,83.0,56.0,-100.00,NNW,335,4.0,11.0,41,-99.99,,,-99.99,,2013-08-22 00:02:00,
2013-08-21 19:10:00,79.0,60.0,-100.00,East,95,1.0,1.0,52,-99.99,,,-99.99,,2013-08-22 00:10:00,
2013-08-21 19:42:00,79.0,60.0,-100.00,East,95,1.0,1.0,52,-99.99,,,-99.99,,2013-08-22 00:42:00,
2013-08-21 19:52:00,79.0,60.0,-100.00,East,95,1.0,1.0,52,-99.99,,,-99.99,,2013-08-22 00:52:00,
2013-08-21 20:02:00,79.0,60.0,-100.00,East,95,1.0,1.0,52,-99.99,,,-99.99,,2013-08-22 01:02:00,
2013-08-21 20:10:00,70.0,63.0,-100.00,East,80,0.0,1.0,80,-99.99,,,-99.99,,2013-08-22 01:10:00,
2013-08-21 20:42:00,70.0,63.0,-100.00,East,80,0.0,1.0,80,-99.99,,,-99.99,,2013-08-22 01:42:00,
2013-08-21 20:52:00,70.0,63.0,-100.00,East,80,0.0,1.0,80,-99.99,,,-99.99,,2013-08-22 01:52:00,
2013-08-21 21:03:00,70.0,63.0,-100.00,East,80,0.0,1.0,80,-99.99,,,-99.99,,2013-08-22 02:03:00,
2013-08-21 21:52:00,64.0,62.0,-100.00,NNE,20,0.0,1.0,94,-99.99,,,-99.99,,2013-08-22 02:52:00,
2013-08-21 22:02:00,64.0,62.0,-100.00,NNE,20,0.0,1.0,94,-99.99,,,-99.99,,2013-08-22 03:02:00,
2013-08-21 22:45:00,61.0,60.0,-100.00,NNE,25,0.0,0.0,97,-99.99,,,-99.99,,2013-08-22 03:45:00,
2013-08-21 22:54:00,61.0,60.0,-100.00,NNE,25,0.0,0.0,97,-99.99,,,-99.99,,2013-08-22 03:54:00,
2013-08-21 23:04:00,61.0,60.0,-100.00,NNE,25,0.0,0.0,97,-99.99,,,-99.99,,2013-08-22 04:04:00,
2013-08-21 23:10:00,59.0,58.0,-100.00,SSE,150,0.0,1.0,99,-99.99,,,-99.99,,2013-08-22 04:10:00,
2013-08-21 23:44:00,59.0,58.0,-100.00,SSE,150,0.0,1.0,99,-99.99,,,-99.99,,2013-08-22 04:44:00,
2013-08-21 23:54:00,59.0,58.0,-100.00,SSE,150,0.0,1.0,99,-99.99,,,-99.99,,2013-08-22 04:54:00,